sensor_id;sensor_type;location;lat;lon;timestamp;P1;durP1;ratioP1;P2;durP2;ratioP2
34499;SDS011;20745;50.882;6.962;2022-09-12T00:01:26;41.55;;;18.90;;
34499;SDS011;20745;50.882;6.962;2022-09-12T00:03:54;37.22;;;19.52;;
34499;SDS011;20745;50.882;6.962;2022-09-12T00:06:42;40.08;;;19.63;;
34499;SDS011;20745;50.882;6.962;2022-09-12T00:09:11;40.75;;;19.27;;
34499;SDS011;20745;50.882;6.962;2022-09-12T00:11:40;44.10;;;19.67;;
34499;SDS011;20745;50.882;6.962;2022-09-12T00:14:10;40.00;;;20.65;;
34499;SDS011;20745;50.882;6.962;2022-09-12T00:16:40;39.15;;;20.27;;
34499;SDS011;20745;50.882;6.962;2022-09-12T00:19:08;39.05;;;20.02;;
34499;SDS011;20745;50.882;6.962;2022-09-12T00:21:36;43.88;;;20.10;;
34499;SDS011;20745;50.882;6.962;2022-09-12T00:24:05;44.78;;;20.08;;
34499;SDS011;20745;50.882;6.962;2022-09-12T00:26:32;40.58;;;20.88;;
34499;SDS011;20745;50.882;6.962;2022-09-12T00:29:00;39.85;;;19.00;;
34499;SDS011;20745;50.882;6.962;2022-09-12T00:31:27;40.85;;;19.75;;
34499;SDS011;20745;50.882;6.962;2022-09-12T00:33:55;43.72;;;20.90;;
34499;SDS011;20745;50.882;6.962;2022-09-12T00:36:42;41.33;;;20.67;;
34499;SDS011;20745;50.882;6.962;2022-09-12T00:39:09;42.38;;;20.25;;
34499;SDS011;20745;50.882;6.962;2022-09-12T00:41:41;36.42;;;19.02;;
34499;SDS011;20745;50.882;6.962;2022-09-12T00:49:30;40.45;;;20.02;;
34499;SDS011;20745;50.882;6.962;2022-09-12T00:52:15;37.22;;;18.58;;
34499;SDS011;20745;50.882;6.962;2022-09-12T00:54:52;38.38;;;19.52;;
34499;SDS011;20745;50.882;6.962;2022-09-12T00:57:49;38.10;;;19.05;;
34499;SDS011;20745;50.882;6.962;2022-09-12T01:00:20;38.65;;;19.10;;
34499;SDS011;20745;50.882;6.962;2022-09-12T01:02:53;39.25;;;18.35;;
34499;SDS011;20745;50.882;6.962;2022-09-12T01:05:24;42.03;;;18.85;;
34499;SDS011;20745;50.882;6.962;2022-09-12T01:07:54;35.25;;;18.73;;
34499;SDS011;20745;50.882;6.962;2022-09-12T01:10:23;41.33;;;19.10;;
34499;SDS011;20745;50.882;6.962;2022-09-12T01:13:09;40.78;;;18.98;;
34499;SDS011;20745;50.882;6.962;2022-09-12T01:15:37;35.85;;;18.15;;
34499;SDS011;20745;50.882;6.962;2022-09-12T01:21:24;38.58;;;18.13;;
34499;SDS011;20745;50.882;6.962;2022-09-12T01:38:18;33.83;;;17.48;;
34499;SDS011;20745;50.882;6.962;2022-09-12T01:44:35;32.70;;;16.90;;
34499;SDS011;20745;50.882;6.962;2022-09-12T01:50:01;34.65;;;16.08;;
34499;SDS011;20745;50.882;6.962;2022-09-12T01:55:19;35.20;;;17.63;;
34499;SDS011;20745;50.882;6.962;2022-09-12T01:58:14;37.40;;;16.65;;
34499;SDS011;20745;50.882;6.962;2022-09-12T02:00:50;34.40;;;17.23;;
34499;SDS011;20745;50.882;6.962;2022-09-12T02:03:26;35.42;;;17.30;;
34499;SDS011;20745;50.882;6.962;2022-09-12T02:06:04;36.13;;;17.67;;
34499;SDS011;20745;50.882;6.962;2022-09-12T02:08:37;36.17;;;17.20;;
34499;SDS011;20745;50.882;6.962;2022-09-12T02:11:10;37.35;;;18.02;;
34499;SDS011;20745;50.882;6.962;2022-09-12T02:13:48;33.75;;;17.70;;
34499;SDS011;20745;50.882;6.962;2022-09-12T02:16:41;34.53;;;16.40;;
34499;SDS011;20745;50.882;6.962;2022-09-12T02:19:19;36.35;;;17.58;;
34499;SDS011;20745;50.882;6.962;2022-09-12T02:21:52;33.53;;;17.02;;
34499;SDS011;20745;50.882;6.962;2022-09-12T02:24:41;40.42;;;18.40;;
34499;SDS011;20745;50.882;6.962;2022-09-12T02:27:22;40.63;;;19.25;;
34499;SDS011;20745;50.882;6.962;2022-09-12T02:29:53;36.78;;;17.52;;
34499;SDS011;20745;50.882;6.962;2022-09-12T02:32:27;35.80;;;17.90;;
34499;SDS011;20745;50.882;6.962;2022-09-12T02:35:01;36.28;;;18.60;;
34499;SDS011;20745;50.882;6.962;2022-09-12T02:37:58;38.88;;;16.85;;
34499;SDS011;20745;50.882;6.962;2022-09-12T02:40:29;35.42;;;17.67;;
34499;SDS011;20745;50.882;6.962;2022-09-12T02:42:57;38.00;;;18.25;;
34499;SDS011;20745;50.882;6.962;2022-09-12T02:45:24;38.08;;;17.77;;
34499;SDS011;20745;50.882;6.962;2022-09-12T02:48:12;38.15;;;17.48;;
34499;SDS011;20745;50.882;6.962;2022-09-12T02:50:44;34.58;;;16.48;;
34499;SDS011;20745;50.882;6.962;2022-09-12T02:53:12;37.15;;;17.42;;
34499;SDS011;20745;50.882;6.962;2022-09-12T02:55:39;38.15;;;19.63;;
34499;SDS011;20745;50.882;6.962;2022-09-12T02:58:27;43.50;;;19.48;;
34499;SDS011;20745;50.882;6.962;2022-09-12T03:01:11;33.35;;;16.88;;
34499;SDS011;20745;50.882;6.962;2022-09-12T03:13:05;37.10;;;17.47;;
34499;SDS011;20745;50.882;6.962;2022-09-12T03:18:45;37.07;;;17.73;;
34499;SDS011;20745;50.882;6.962;2022-09-12T03:26:47;37.47;;;17.67;;
34499;SDS011;20745;50.882;6.962;2022-09-12T03:29:18;34.90;;;17.60;;
34499;SDS011;20745;50.882;6.962;2022-09-12T03:31:51;37.60;;;18.58;;
34499;SDS011;20745;50.882;6.962;2022-09-12T03:34:20;36.05;;;17.23;;
34499;SDS011;20745;50.882;6.962;2022-09-12T03:36:48;34.05;;;17.73;;
34499;SDS011;20745;50.882;6.962;2022-09-12T03:39:15;39.58;;;17.95;;
34499;SDS011;20745;50.882;6.962;2022-09-12T03:42:02;33.75;;;17.30;;
34499;SDS011;20745;50.882;6.962;2022-09-12T03:44:29;36.10;;;17.27;;
34499;SDS011;20745;50.882;6.962;2022-09-12T03:46:56;36.97;;;17.80;;
34499;SDS011;20745;50.882;6.962;2022-09-12T03:49:23;33.90;;;17.40;;
34499;SDS011;20745;50.882;6.962;2022-09-12T03:51:50;36.35;;;17.17;;
34499;SDS011;20745;50.882;6.962;2022-09-12T03:54:25;33.25;;;16.08;;
34499;SDS011;20745;50.882;6.962;2022-09-12T03:56:52;34.70;;;17.02;;
34499;SDS011;20745;50.882;6.962;2022-09-12T03:59:19;31.70;;;16.13;;
34499;SDS011;20745;50.882;6.962;2022-09-12T04:01:46;35.67;;;17.35;;
34499;SDS011;20745;50.882;6.962;2022-09-12T04:04:13;36.60;;;17.27;;
34499;SDS011;20745;50.882;6.962;2022-09-12T04:06:59;34.30;;;16.42;;
34499;SDS011;20745;50.882;6.962;2022-09-12T04:09:26;34.40;;;15.98;;
34499;SDS011;20745;50.882;6.962;2022-09-12T04:11:52;32.72;;;15.70;;
34499;SDS011;20745;50.882;6.962;2022-09-12T04:14:19;34.33;;;15.68;;
34499;SDS011;20745;50.882;6.962;2022-09-12T04:16:46;28.35;;;14.93;;
34499;SDS011;20745;50.882;6.962;2022-09-12T04:19:14;32.42;;;15.82;;
34499;SDS011;20745;50.882;6.962;2022-09-12T04:21:40;31.25;;;14.43;;
34499;SDS011;20745;50.882;6.962;2022-09-12T04:24:07;31.10;;;15.10;;
34499;SDS011;20745;50.882;6.962;2022-09-12T04:26:34;28.33;;;13.77;;
34499;SDS011;20745;50.882;6.962;2022-09-12T04:29:20;30.38;;;14.30;;
34499;SDS011;20745;50.882;6.962;2022-09-12T04:31:47;29.33;;;14.40;;
34499;SDS011;20745;50.882;6.962;2022-09-12T04:34:32;28.35;;;14.35;;
34499;SDS011;20745;50.882;6.962;2022-09-12T04:36:59;28.08;;;13.57;;
34499;SDS011;20745;50.882;6.962;2022-09-12T04:39:26;28.63;;;14.13;;
34499;SDS011;20745;50.882;6.962;2022-09-12T04:41:53;27.52;;;14.25;;
34499;SDS011;20745;50.882;6.962;2022-09-12T04:44:38;29.08;;;14.55;;
34499;SDS011;20745;50.882;6.962;2022-09-12T04:47:05;30.45;;;13.98;;
34499;SDS011;20745;50.882;6.962;2022-09-12T04:49:33;29.73;;;13.90;;
34499;SDS011;20745;50.882;6.962;2022-09-12T04:52:18;29.08;;;13.80;;
34499;SDS011;20745;50.882;6.962;2022-09-12T04:54:45;27.65;;;13.45;;
34499;SDS011;20745;50.882;6.962;2022-09-12T04:57:27;28.20;;;14.10;;
34499;SDS011;20745;50.882;6.962;2022-09-12T04:59:54;25.38;;;13.02;;
34499;SDS011;20745;50.882;6.962;2022-09-12T05:02:21;30.17;;;14.07;;
34499;SDS011;20745;50.882;6.962;2022-09-12T05:05:07;31.60;;;13.45;;
34499;SDS011;20745;50.882;6.962;2022-09-12T05:07:35;27.45;;;13.75;;
34499;SDS011;20745;50.882;6.962;2022-09-12T05:10:02;29.58;;;12.90;;
34499;SDS011;20745;50.882;6.962;2022-09-12T05:12:30;28.27;;;13.48;;
34499;SDS011;20745;50.882;6.962;2022-09-12T05:14:57;26.00;;;12.18;;
34499;SDS011;20745;50.882;6.962;2022-09-12T05:17:24;26.65;;;13.00;;
34499;SDS011;20745;50.882;6.962;2022-09-12T05:19:51;30.83;;;13.63;;
34499;SDS011;20745;50.882;6.962;2022-09-12T05:22:18;27.05;;;13.00;;
34499;SDS011;20745;50.882;6.962;2022-09-12T05:24:45;27.05;;;12.50;;
34499;SDS011;20745;50.882;6.962;2022-09-12T05:27:16;27.42;;;13.65;;
34499;SDS011;20745;50.882;6.962;2022-09-12T05:29:43;25.25;;;12.57;;
34499;SDS011;20745;50.882;6.962;2022-09-12T05:32:10;29.30;;;12.27;;
34499;SDS011;20745;50.882;6.962;2022-09-12T05:34:38;24.88;;;12.88;;
34499;SDS011;20745;50.882;6.962;2022-09-12T05:37:05;28.83;;;12.35;;
34499;SDS011;20745;50.882;6.962;2022-09-12T05:39:32;25.05;;;12.45;;
34499;SDS011;20745;50.882;6.962;2022-09-12T05:41:59;27.83;;;12.82;;
34499;SDS011;20745;50.882;6.962;2022-09-12T05:44:26;26.95;;;12.18;;
34499;SDS011;20745;50.882;6.962;2022-09-12T05:47:12;25.90;;;12.90;;
34499;SDS011;20745;50.882;6.962;2022-09-12T05:49:39;25.58;;;11.73;;
34499;SDS011;20745;50.882;6.962;2022-09-12T05:52:07;25.00;;;12.25;;
34499;SDS011;20745;50.882;6.962;2022-09-12T05:54:34;26.60;;;12.27;;
34499;SDS011;20745;50.882;6.962;2022-09-12T05:57:20;26.60;;;11.93;;
34499;SDS011;20745;50.882;6.962;2022-09-12T05:59:47;26.15;;;12.10;;
34499;SDS011;20745;50.882;6.962;2022-09-12T06:02:15;24.58;;;11.50;;
34499;SDS011;20745;50.882;6.962;2022-09-12T06:04:42;24.48;;;11.60;;
34499;SDS011;20745;50.882;6.962;2022-09-12T06:07:09;23.88;;;11.88;;
34499;SDS011;20745;50.882;6.962;2022-09-12T06:09:48;25.83;;;12.32;;
34499;SDS011;20745;50.882;6.962;2022-09-12T06:12:24;25.85;;;11.23;;
34499;SDS011;20745;50.882;6.962;2022-09-12T06:14:52;25.13;;;11.48;;
34499;SDS011;20745;50.882;6.962;2022-09-12T06:17:19;25.20;;;11.68;;
34499;SDS011;20745;50.882;6.962;2022-09-12T06:20:06;23.95;;;11.63;;
34499;SDS011;20745;50.882;6.962;2022-09-12T06:22:33;24.42;;;12.00;;
34499;SDS011;20745;50.882;6.962;2022-09-12T06:25:01;23.75;;;11.93;;
34499;SDS011;20745;50.882;6.962;2022-09-12T06:27:29;25.27;;;11.13;;
34499;SDS011;20745;50.882;6.962;2022-09-12T06:29:56;25.73;;;11.98;;
34499;SDS011;20745;50.882;6.962;2022-09-12T06:32:23;22.73;;;11.23;;
34499;SDS011;20745;50.882;6.962;2022-09-12T06:34:50;23.83;;;11.10;;
34499;SDS011;20745;50.882;6.962;2022-09-12T06:37:23;26.13;;;11.38;;
34499;SDS011;20745;50.882;6.962;2022-09-12T06:39:50;23.67;;;11.10;;
34499;SDS011;20745;50.882;6.962;2022-09-12T06:42:17;24.05;;;11.32;;
34499;SDS011;20745;50.882;6.962;2022-09-12T06:45:03;28.35;;;12.10;;
34499;SDS011;20745;50.882;6.962;2022-09-12T06:47:30;23.65;;;11.02;;
34499;SDS011;20745;50.882;6.962;2022-09-12T06:49:57;22.75;;;10.98;;
34499;SDS011;20745;50.882;6.962;2022-09-12T06:52:24;27.48;;;11.82;;
34499;SDS011;20745;50.882;6.962;2022-09-12T06:54:52;26.30;;;11.95;;
34499;SDS011;20745;50.882;6.962;2022-09-12T06:57:18;23.75;;;11.10;;
34499;SDS011;20745;50.882;6.962;2022-09-12T07:00:04;25.15;;;11.63;;
34499;SDS011;20745;50.882;6.962;2022-09-12T07:02:32;24.23;;;11.77;;
34499;SDS011;20745;50.882;6.962;2022-09-12T07:04:59;23.73;;;10.80;;
34499;SDS011;20745;50.882;6.962;2022-09-12T07:07:26;22.05;;;11.10;;
34499;SDS011;20745;50.882;6.962;2022-09-12T07:10:11;26.52;;;10.82;;
34499;SDS011;20745;50.882;6.962;2022-09-12T07:12:38;22.15;;;10.93;;
34499;SDS011;20745;50.882;6.962;2022-09-12T07:15:05;25.70;;;11.82;;
34499;SDS011;20745;50.882;6.962;2022-09-12T07:17:33;29.80;;;11.45;;
34499;SDS011;20745;50.882;6.962;2022-09-12T07:20:00;25.25;;;11.60;;
34499;SDS011;20745;50.882;6.962;2022-09-12T07:22:28;25.00;;;11.65;;
34499;SDS011;20745;50.882;6.962;2022-09-12T07:24:55;25.08;;;11.30;;
34499;SDS011;20745;50.882;6.962;2022-09-12T07:27:23;26.02;;;12.05;;
34499;SDS011;20745;50.882;6.962;2022-09-12T07:29:50;26.95;;;12.63;;
34499;SDS011;20745;50.882;6.962;2022-09-12T07:32:17;25.27;;;11.80;;
34499;SDS011;20745;50.882;6.962;2022-09-12T07:34:44;25.52;;;12.50;;
34499;SDS011;20745;50.882;6.962;2022-09-12T07:37:11;26.20;;;12.98;;
34499;SDS011;20745;50.882;6.962;2022-09-12T07:39:56;22.88;;;11.88;;
34499;SDS011;20745;50.882;6.962;2022-09-12T07:42:23;26.23;;;12.05;;
34499;SDS011;20745;50.882;6.962;2022-09-12T07:44:50;28.40;;;13.38;;
34499;SDS011;20745;50.882;6.962;2022-09-12T07:47:18;23.90;;;13.10;;
34499;SDS011;20745;50.882;6.962;2022-09-12T07:50:04;26.80;;;13.30;;
34499;SDS011;20745;50.882;6.962;2022-09-12T07:52:31;25.83;;;12.57;;
34499;SDS011;20745;50.882;6.962;2022-09-12T07:54:58;28.60;;;13.25;;
34499;SDS011;20745;50.882;6.962;2022-09-12T07:57:25;27.25;;;12.98;;
34499;SDS011;20745;50.882;6.962;2022-09-12T07:59:52;25.48;;;13.43;;
34499;SDS011;20745;50.882;6.962;2022-09-12T08:02:37;24.88;;;12.90;;
34499;SDS011;20745;50.882;6.962;2022-09-12T08:05:07;29.95;;;13.93;;
34499;SDS011;20745;50.882;6.962;2022-09-12T08:07:34;26.40;;;13.05;;
34499;SDS011;20745;50.882;6.962;2022-09-12T08:10:01;27.10;;;13.48;;
34499;SDS011;20745;50.882;6.962;2022-09-12T08:12:28;25.05;;;12.80;;
34499;SDS011;20745;50.882;6.962;2022-09-12T08:14:57;25.25;;;13.05;;
34499;SDS011;20745;50.882;6.962;2022-09-12T08:17:24;24.77;;;12.98;;
34499;SDS011;20745;50.882;6.962;2022-09-12T08:19:51;23.13;;;11.93;;
34499;SDS011;20745;50.882;6.962;2022-09-12T08:22:19;27.17;;;12.98;;
34499;SDS011;20745;50.882;6.962;2022-09-12T08:24:47;26.25;;;12.25;;
34499;SDS011;20745;50.882;6.962;2022-09-12T08:27:14;24.05;;;11.63;;
34499;SDS011;20745;50.882;6.962;2022-09-12T08:29:42;26.63;;;12.63;;
34499;SDS011;20745;50.882;6.962;2022-09-12T08:32:09;27.10;;;14.15;;
34499;SDS011;20745;50.882;6.962;2022-09-12T08:34:36;24.92;;;12.45;;
34499;SDS011;20745;50.882;6.962;2022-09-12T08:37:03;25.10;;;13.38;;
34499;SDS011;20745;50.882;6.962;2022-09-12T08:39:30;26.27;;;13.50;;
34499;SDS011;20745;50.882;6.962;2022-09-12T08:42:01;27.27;;;13.32;;
34499;SDS011;20745;50.882;6.962;2022-09-12T08:55:32;27.75;;;13.77;;
34499;SDS011;20745;50.882;6.962;2022-09-12T08:58:16;25.40;;;13.02;;
34499;SDS011;20745;50.882;6.962;2022-09-12T09:01:09;31.30;;;13.73;;
34499;SDS011;20745;50.882;6.962;2022-09-12T09:12:43;26.77;;;13.40;;
34499;SDS011;20745;50.882;6.962;2022-09-12T09:15:40;26.45;;;13.02;;
34499;SDS011;20745;50.882;6.962;2022-09-12T09:23:52;30.45;;;14.70;;
34499;SDS011;20745;50.882;6.962;2022-09-12T09:29:18;27.55;;;12.77;;
34499;SDS011;20745;50.882;6.962;2022-09-12T09:31:50;26.77;;;13.52;;
34499;SDS011;20745;50.882;6.962;2022-09-12T09:34:20;25.73;;;11.80;;
34499;SDS011;20745;50.882;6.962;2022-09-12T09:39:19;26.05;;;12.55;;
34499;SDS011;20745;50.882;6.962;2022-09-12T09:44:44;19.65;;;9.10;;
34499;SDS011;20745;50.882;6.962;2022-09-12T09:47:13;19.58;;;9.48;;
34499;SDS011;20745;50.882;6.962;2022-09-12T09:49:41;17.77;;;8.63;;
34499;SDS011;20745;50.882;6.962;2022-09-12T09:52:27;17.70;;;8.50;;
34499;SDS011;20745;50.882;6.962;2022-09-12T10:02:58;20.00;;;9.82;;
34499;SDS011;20745;50.882;6.962;2022-09-12T10:05:48;21.77;;;9.48;;
34499;SDS011;20745;50.882;6.962;2022-09-12T10:10:52;18.07;;;7.30;;
34499;SDS011;20745;50.882;6.962;2022-09-12T10:13:35;20.23;;;8.60;;
34499;SDS011;20745;50.882;6.962;2022-09-12T10:16:23;17.48;;;7.90;;
34499;SDS011;20745;50.882;6.962;2022-09-12T10:18:54;15.38;;;6.35;;
34499;SDS011;20745;50.882;6.962;2022-09-12T10:21:27;18.30;;;6.20;;
34499;SDS011;20745;50.882;6.962;2022-09-12T10:24:24;14.30;;;5.57;;
34499;SDS011;20745;50.882;6.962;2022-09-12T10:26:52;13.10;;;5.63;;
34499;SDS011;20745;50.882;6.962;2022-09-12T10:29:38;13.55;;;5.45;;
34499;SDS011;20745;50.882;6.962;2022-09-12T10:32:29;11.52;;;5.50;;
34499;SDS011;20745;50.882;6.962;2022-09-12T10:35:03;13.23;;;5.50;;
34499;SDS011;20745;50.882;6.962;2022-09-12T10:37:53;13.90;;;5.00;;
34499;SDS011;20745;50.882;6.962;2022-09-12T10:40:42;14.63;;;6.38;;
34499;SDS011;20745;50.882;6.962;2022-09-12T10:43:43;13.75;;;5.63;;
34499;SDS011;20745;50.882;6.962;2022-09-12T10:46:20;13.43;;;5.05;;
34499;SDS011;20745;50.882;6.962;2022-09-12T10:48:50;11.48;;;4.35;;
34499;SDS011;20745;50.882;6.962;2022-09-12T10:51:56;12.82;;;4.88;;
34499;SDS011;20745;50.882;6.962;2022-09-12T10:54:44;11.40;;;5.00;;
34499;SDS011;20745;50.882;6.962;2022-09-12T11:00:17;13.02;;;4.50;;
34499;SDS011;20745;50.882;6.962;2022-09-12T11:11:06;10.13;;;3.92;;
34499;SDS011;20745;50.882;6.962;2022-09-12T11:13:53;12.65;;;4.10;;
34499;SDS011;20745;50.882;6.962;2022-09-12T11:16:42;9.88;;;3.80;;
34499;SDS011;20745;50.882;6.962;2022-09-12T11:19:23;10.27;;;3.63;;
34499;SDS011;20745;50.882;6.962;2022-09-12T11:22:22;9.98;;;3.10;;
34499;SDS011;20745;50.882;6.962;2022-09-12T11:33:45;7.47;;;2.60;;
34499;SDS011;20745;50.882;6.962;2022-09-12T11:38:51;7.55;;;3.17;;
34499;SDS011;20745;50.882;6.962;2022-09-12T11:41:31;7.43;;;3.00;;
34499;SDS011;20745;50.882;6.962;2022-09-12T11:44:50;11.05;;;3.47;;
34499;SDS011;20745;50.882;6.962;2022-09-12T11:47:24;8.57;;;3.40;;
34499;SDS011;20745;50.882;6.962;2022-09-12T11:49:55;10.95;;;3.42;;
34499;SDS011;20745;50.882;6.962;2022-09-12T11:52:42;11.35;;;3.40;;
34499;SDS011;20745;50.882;6.962;2022-09-12T11:55:19;8.63;;;3.15;;
34499;SDS011;20745;50.882;6.962;2022-09-12T11:58:09;7.55;;;2.83;;
34499;SDS011;20745;50.882;6.962;2022-09-12T12:00:40;9.05;;;3.47;;
34499;SDS011;20745;50.882;6.962;2022-09-12T12:03:41;10.30;;;3.60;;
34499;SDS011;20745;50.882;6.962;2022-09-12T12:08:47;9.40;;;3.85;;
34499;SDS011;20745;50.882;6.962;2022-09-12T12:11:35;9.57;;;3.22;;
34499;SDS011;20745;50.882;6.962;2022-09-12T12:14:14;11.20;;;3.50;;
34499;SDS011;20745;50.882;6.962;2022-09-12T12:17:19;7.75;;;3.40;;
34499;SDS011;20745;50.882;6.962;2022-09-12T12:20:01;8.10;;;3.38;;
34499;SDS011;20745;50.882;6.962;2022-09-12T12:22:34;11.48;;;3.42;;
34499;SDS011;20745;50.882;6.962;2022-09-12T12:27:56;9.45;;;3.40;;
34499;SDS011;20745;50.882;6.962;2022-09-12T12:35:44;10.35;;;3.90;;
34499;SDS011;20745;50.882;6.962;2022-09-12T12:38:36;7.45;;;3.30;;
34499;SDS011;20745;50.882;6.962;2022-09-12T12:43:44;7.47;;;3.30;;
34499;SDS011;20745;50.882;6.962;2022-09-12T12:46:16;7.40;;;3.17;;
34499;SDS011;20745;50.882;6.962;2022-09-12T12:48:50;7.75;;;3.03;;
34499;SDS011;20745;50.882;6.962;2022-09-12T12:51:34;6.50;;;2.60;;
34499;SDS011;20745;50.882;6.962;2022-09-12T12:57:28;8.02;;;3.17;;
34499;SDS011;20745;50.882;6.962;2022-09-12T13:05:47;7.40;;;3.00;;
34499;SDS011;20745;50.882;6.962;2022-09-12T13:13:56;6.25;;;2.92;;
34499;SDS011;20745;50.882;6.962;2022-09-12T13:16:33;6.50;;;2.70;;
34499;SDS011;20745;50.882;6.962;2022-09-12T13:19:35;9.20;;;3.65;;
34499;SDS011;20745;50.882;6.962;2022-09-12T13:24:30;6.28;;;2.95;;
34499;SDS011;20745;50.882;6.962;2022-09-12T13:26:57;7.68;;;2.97;;
34499;SDS011;20745;50.882;6.962;2022-09-12T13:29:43;9.30;;;3.10;;
34499;SDS011;20745;50.882;6.962;2022-09-12T13:32:11;8.48;;;3.03;;
34499;SDS011;20745;50.882;6.962;2022-09-12T13:34:58;7.03;;;2.85;;
34499;SDS011;20745;50.882;6.962;2022-09-12T13:37:53;9.85;;;3.17;;
34499;SDS011;20745;50.882;6.962;2022-09-12T13:40:41;8.68;;;3.20;;
34499;SDS011;20745;50.882;6.962;2022-09-12T13:43:25;9.35;;;3.33;;
34499;SDS011;20745;50.882;6.962;2022-09-12T13:46:29;9.77;;;3.35;;
34499;SDS011;20745;50.882;6.962;2022-09-12T13:49:00;8.57;;;3.05;;
34499;SDS011;20745;50.882;6.962;2022-09-12T13:51:34;9.07;;;3.30;;
34499;SDS011;20745;50.882;6.962;2022-09-12T13:54:02;7.25;;;3.00;;
34499;SDS011;20745;50.882;6.962;2022-09-12T13:56:31;8.23;;;3.05;;
34499;SDS011;20745;50.882;6.962;2022-09-12T13:58:58;6.18;;;3.05;;
34499;SDS011;20745;50.882;6.962;2022-09-12T14:01:37;8.50;;;3.22;;
34499;SDS011;20745;50.882;6.962;2022-09-12T14:04:09;7.05;;;3.08;;
34499;SDS011;20745;50.882;6.962;2022-09-12T14:07:22;8.38;;;2.85;;
34499;SDS011;20745;50.882;6.962;2022-09-12T14:09:53;8.70;;;3.20;;
34499;SDS011;20745;50.882;6.962;2022-09-12T14:12:33;6.63;;;2.72;;
34499;SDS011;20745;50.882;6.962;2022-09-12T14:15:03;6.97;;;3.15;;
34499;SDS011;20745;50.882;6.962;2022-09-12T14:17:38;6.90;;;3.20;;
34499;SDS011;20745;50.882;6.962;2022-09-12T14:20:06;8.00;;;3.05;;
34499;SDS011;20745;50.882;6.962;2022-09-12T14:22:39;6.20;;;3.10;;
34499;SDS011;20745;50.882;6.962;2022-09-12T14:25:12;6.55;;;3.08;;
34499;SDS011;20745;50.882;6.962;2022-09-12T14:28:01;9.35;;;3.28;;
34499;SDS011;20745;50.882;6.962;2022-09-12T14:30:30;8.63;;;3.30;;
34499;SDS011;20745;50.882;6.962;2022-09-12T14:35:45;7.45;;;3.08;;
34499;SDS011;20745;50.882;6.962;2022-09-12T14:41:01;7.15;;;3.17;;
34499;SDS011;20745;50.882;6.962;2022-09-12T14:43:34;8.50;;;3.15;;
34499;SDS011;20745;50.882;6.962;2022-09-12T14:46:06;8.63;;;2.97;;
34499;SDS011;20745;50.882;6.962;2022-09-12T14:48:42;10.82;;;3.75;;
34499;SDS011;20745;50.882;6.962;2022-09-12T14:51:17;6.28;;;2.78;;
34499;SDS011;20745;50.882;6.962;2022-09-12T14:53:50;7.38;;;3.13;;
34499;SDS011;20745;50.882;6.962;2022-09-12T14:56:40;6.75;;;2.80;;
34499;SDS011;20745;50.882;6.962;2022-09-12T15:10:29;6.85;;;3.00;;
34499;SDS011;20745;50.882;6.962;2022-09-12T15:15:36;14.25;;;3.63;;
34499;SDS011;20745;50.882;6.962;2022-09-12T15:18:23;8.45;;;2.97;;
34499;SDS011;20745;50.882;6.962;2022-09-12T15:20:59;6.55;;;2.53;;
34499;SDS011;20745;50.882;6.962;2022-09-12T15:23:50;6.82;;;3.00;;
34499;SDS011;20745;50.882;6.962;2022-09-12T15:26:35;8.77;;;3.13;;
34499;SDS011;20745;50.882;6.962;2022-09-12T15:29:02;8.70;;;3.20;;
34499;SDS011;20745;50.882;6.962;2022-09-12T15:31:48;6.55;;;2.90;;
34499;SDS011;20745;50.882;6.962;2022-09-12T15:34:16;5.82;;;2.67;;
34499;SDS011;20745;50.882;6.962;2022-09-12T15:36:44;6.57;;;2.75;;
34499;SDS011;20745;50.882;6.962;2022-09-12T15:39:11;7.88;;;2.60;;
34499;SDS011;20745;50.882;6.962;2022-09-12T15:41:38;8.38;;;3.05;;
34499;SDS011;20745;50.882;6.962;2022-09-12T15:44:06;9.85;;;2.97;;
34499;SDS011;20745;50.882;6.962;2022-09-12T15:46:36;7.43;;;2.88;;
34499;SDS011;20745;50.882;6.962;2022-09-12T15:49:03;5.07;;;2.40;;
34499;SDS011;20745;50.882;6.962;2022-09-12T15:51:30;7.93;;;2.58;;
34499;SDS011;20745;50.882;6.962;2022-09-12T15:53:57;7.18;;;3.05;;
34499;SDS011;20745;50.882;6.962;2022-09-12T15:56:25;6.50;;;2.70;;
34499;SDS011;20745;50.882;6.962;2022-09-12T15:58:52;7.45;;;2.53;;
34499;SDS011;20745;50.882;6.962;2022-09-12T16:01:26;9.13;;;2.80;;
34499;SDS011;20745;50.882;6.962;2022-09-12T16:03:54;8.20;;;2.60;;
34499;SDS011;20745;50.882;6.962;2022-09-12T16:06:21;7.65;;;2.67;;
34499;SDS011;20745;50.882;6.962;2022-09-12T16:08:49;6.72;;;2.50;;
34499;SDS011;20745;50.882;6.962;2022-09-12T16:11:17;7.70;;;2.55;;
34499;SDS011;20745;50.882;6.962;2022-09-12T16:13:47;5.68;;;2.40;;
34499;SDS011;20745;50.882;6.962;2022-09-12T16:16:14;5.07;;;2.10;;
34499;SDS011;20745;50.882;6.962;2022-09-12T16:18:41;6.40;;;2.30;;
34499;SDS011;20745;50.882;6.962;2022-09-12T16:21:27;6.93;;;2.33;;
34499;SDS011;20745;50.882;6.962;2022-09-12T16:23:54;6.97;;;2.20;;
34499;SDS011;20745;50.882;6.962;2022-09-12T16:26:26;14.57;;;2.97;;
34499;SDS011;20745;50.882;6.962;2022-09-12T16:29:05;6.05;;;2.22;;
34499;SDS011;20745;50.882;6.962;2022-09-12T16:31:32;9.32;;;2.80;;
34499;SDS011;20745;50.882;6.962;2022-09-12T16:33:59;7.35;;;2.40;;
34499;SDS011;20745;50.882;6.962;2022-09-12T16:36:26;4.13;;;1.92;;
34499;SDS011;20745;50.882;6.962;2022-09-12T16:39:12;7.07;;;2.00;;
34499;SDS011;20745;50.882;6.962;2022-09-12T16:41:39;4.95;;;1.73;;
34499;SDS011;20745;50.882;6.962;2022-09-12T16:44:26;6.45;;;2.28;;
34499;SDS011;20745;50.882;6.962;2022-09-12T16:46:54;6.35;;;2.10;;
34499;SDS011;20745;50.882;6.962;2022-09-12T16:49:21;6.32;;;1.90;;
34499;SDS011;20745;50.882;6.962;2022-09-12T16:51:48;4.38;;;1.83;;
34499;SDS011;20745;50.882;6.962;2022-09-12T16:54:15;3.45;;;1.63;;
34499;SDS011;20745;50.882;6.962;2022-09-12T16:57:01;6.35;;;1.83;;
34499;SDS011;20745;50.882;6.962;2022-09-12T16:59:31;5.03;;;2.08;;
34499;SDS011;20745;50.882;6.962;2022-09-12T17:01:58;4.50;;;1.70;;
34499;SDS011;20745;50.882;6.962;2022-09-12T17:04:40;3.35;;;1.67;;
34499;SDS011;20745;50.882;6.962;2022-09-12T17:07:07;5.03;;;1.88;;
34499;SDS011;20745;50.882;6.962;2022-09-12T17:09:34;6.88;;;1.85;;
34499;SDS011;20745;50.882;6.962;2022-09-12T17:12:01;3.83;;;1.65;;
34499;SDS011;20745;50.882;6.962;2022-09-12T17:14:28;6.15;;;1.70;;
34499;SDS011;20745;50.882;6.962;2022-09-12T17:16:56;4.50;;;1.40;;
34499;SDS011;20745;50.882;6.962;2022-09-12T17:19:23;4.80;;;1.60;;
34499;SDS011;20745;50.882;6.962;2022-09-12T17:21:55;5.65;;;1.70;;
34499;SDS011;20745;50.882;6.962;2022-09-12T17:24:23;5.00;;;1.73;;
34499;SDS011;20745;50.882;6.962;2022-09-12T17:27:09;3.45;;;1.70;;
34499;SDS011;20745;50.882;6.962;2022-09-12T17:29:36;5.78;;;2.50;;
34499;SDS011;20745;50.882;6.962;2022-09-12T17:32:04;5.30;;;2.20;;
34499;SDS011;20745;50.882;6.962;2022-09-12T17:34:31;6.03;;;2.20;;
34499;SDS011;20745;50.882;6.962;2022-09-12T17:36:58;2.58;;;1.60;;
34499;SDS011;20745;50.882;6.962;2022-09-12T17:39:25;3.70;;;1.60;;
34499;SDS011;20745;50.882;6.962;2022-09-12T17:41:52;6.75;;;1.90;;
34499;SDS011;20745;50.882;6.962;2022-09-12T17:44:23;11.25;;;4.68;;
34499;SDS011;20745;50.882;6.962;2022-09-12T17:46:50;7.72;;;2.95;;
34499;SDS011;20745;50.882;6.962;2022-09-12T17:49:17;19.27;;;9.88;;
34499;SDS011;20745;50.882;6.962;2022-09-12T17:51:47;20.45;;;10.35;;
34499;SDS011;20745;50.882;6.962;2022-09-12T17:54:16;12.63;;;4.90;;
34499;SDS011;20745;50.882;6.962;2022-09-12T17:56:44;10.88;;;3.03;;